Sn Margarita, California
Current Conditions -  °F | °C
As of 3:51 AM on Thursday 27 Nov 2014 (Local Time) from KSMX Reporting Station
Clear Clear  
Wind Chill: 50°   Ceiling: Unl
Heat Index: 50°   Visibility: 10mi
Dew Point: 34°   Wind: 3mph
Humidity: 54%   Direction: 50°NE
Pressure: 30.12"   Gusts: NA
Location:  35.235°N, 120.021°W
Report Text: KSMX 271151Z 05003KT 10SM CLR 10/01 A3012 RMK AO2 SLP202 T01000011 10122 20083 58014 $
Loading
Personal Weather Stations






























Interactive Weather Map New forecast layout! Learn more

10-Day Weather Forecast

Advertisements
Track Severe Weather on mobile